createdAt,value
2022-09-28T00:03:06.836Z,1.17
2022-09-28T00:08:09.324Z,1.10
2022-09-28T00:13:11.405Z,0.70
2022-09-28T00:18:13.481Z,0.90
2022-09-28T00:23:16.062Z,1.13
2022-09-28T00:28:18.521Z,0.98
2022-09-28T00:33:20.575Z,1.00
2022-09-28T00:38:25.631Z,0.70
2022-09-28T00:43:28.047Z,1.00
2022-09-28T00:48:36.310Z,0.75
2022-09-28T00:53:40.899Z,0.40
2022-09-28T00:58:47.523Z,0.70
2022-09-28T01:03:49.560Z,0.50
2022-09-28T01:08:55.959Z,0.50
2022-09-28T01:13:58.747Z,0.83
2022-09-28T01:19:33.507Z,0.45
2022-09-28T01:24:47.447Z,1.20
2022-09-28T01:30:05.589Z,0.40
2022-09-28T01:35:18.522Z,0.90
2022-09-28T01:40:23.614Z,0.37
2022-09-28T01:45:38.417Z,0.30
2022-09-28T01:50:43.642Z,0.30
2022-09-28T01:55:52.514Z,0.40
2022-09-28T02:01:01.072Z,0.20
2022-09-28T02:06:10.676Z,0.10
2022-09-28T02:11:14.151Z,0.20
2022-09-28T02:16:45.468Z,0.20
2022-09-28T02:22:13.252Z,0.50
2022-09-28T02:27:53.919Z,0.40
2022-09-28T02:33:02.547Z,0.30
2022-09-28T02:38:05.250Z,0.23
2022-09-28T02:43:24.615Z,0.30
2022-09-28T02:48:55.721Z,0.47
2022-09-28T02:54:29.917Z,0.50
2022-09-28T02:59:53.933Z,0.60
2022-09-28T03:05:13.981Z,0.80
2022-09-28T03:10:44.322Z,0.50
2022-09-28T03:15:48.972Z,0.50
2022-09-28T03:20:52.279Z,0.73
2022-09-28T03:25:54.732Z,0.80
2022-09-28T03:30:57.303Z,1.00
2022-09-28T03:35:59.376Z,0.50
2022-09-28T03:41:01.610Z,0.60
2022-09-28T03:46:05.551Z,0.73
2022-09-28T03:51:11.310Z,0.80
2022-09-28T03:56:15.552Z,0.70
2022-09-28T04:01:18.238Z,0.63
2022-09-28T04:06:20.798Z,0.50
2022-09-28T04:11:24.055Z,0.53
2022-09-28T04:16:26.612Z,0.73
2022-09-28T04:21:29.311Z,0.53
2022-09-28T04:26:31.917Z,0.40
2022-09-28T04:31:45.981Z,0.80
2022-09-28T04:36:49.887Z,0.87
2022-09-28T04:41:52.181Z,0.47
2022-09-28T04:46:56.215Z,0.65
2022-09-28T04:52:06.796Z,1.10
2022-09-28T04:57:08.960Z,0.80
2022-09-28T05:02:13.821Z,0.93
2022-09-28T05:07:17.157Z,0.93
2022-09-28T05:12:19.257Z,1.50
2022-09-28T05:17:23.366Z,0.63
2022-09-28T05:22:28.132Z,0.83
2022-09-28T05:27:30.523Z,0.75
2022-09-28T05:32:33.907Z,1.00
2022-09-28T05:37:36.542Z,1.33
2022-09-28T05:42:40.484Z,0.50
2022-09-28T05:47:45.946Z,0.97
2022-09-28T05:52:58.463Z,1.20
2022-09-28T05:58:02.037Z,0.70
2022-09-28T06:03:11.016Z,1.00
2022-09-28T06:08:13.949Z,1.00
2022-09-28T06:13:16.649Z,0.87
2022-09-28T06:18:19.056Z,0.90
2022-09-28T06:23:21.820Z,1.37
2022-09-28T06:28:24.744Z,2.73
2022-09-28T06:38:29.065Z,1.60
2022-09-28T06:43:34.365Z,0.85
2022-09-28T06:48:39.640Z,1.77
2022-09-28T06:53:43.518Z,0.97
2022-09-28T06:58:45.551Z,1.67
2022-09-28T07:03:49.684Z,1.30
2022-09-28T07:09:03.824Z,1.30
2022-09-28T07:14:28.294Z,1.55
2022-09-28T07:19:36.575Z,1.10
2022-09-28T07:24:38.661Z,1.10
2022-09-28T07:29:44.856Z,1.67
2022-09-28T07:34:48.643Z,1.30
2022-09-28T07:40:10.552Z,1.62
2022-09-28T07:45:13.012Z,1.60
2022-09-28T07:50:15.304Z,1.37
2022-09-28T07:55:17.872Z,0.98
2022-09-28T08:00:21.084Z,1.10
2022-09-28T08:10:26.497Z,1.23
2022-09-28T08:15:36.872Z,0.90
2022-09-28T08:20:59.149Z,1.55
2022-09-28T08:26:01.949Z,0.77
2022-09-28T08:31:07.167Z,1.20
2022-09-28T08:36:11.493Z,1.00
2022-09-28T08:41:45.000Z,0.77
2022-09-28T08:46:51.319Z,1.35
2022-09-28T08:52:05.683Z,1.25
2022-09-28T08:57:29.924Z,0.62
2022-09-28T09:02:36.104Z,1.17
2022-09-28T09:08:02.383Z,0.90
2022-09-28T09:13:28.902Z,0.80
2022-09-28T09:18:41.423Z,1.10
2022-09-28T09:24:01.492Z,0.90
2022-09-28T09:29:18.310Z,1.00
2022-09-28T09:34:23.943Z,1.50
2022-09-28T09:39:59.426Z,1.55
2022-09-28T09:45:06.915Z,0.82
2022-09-28T09:50:39.318Z,1.25
2022-09-28T09:55:48.272Z,1.52
2022-09-28T10:00:54.119Z,0.85
2022-09-28T10:06:06.927Z,0.90
2022-09-28T10:11:21.880Z,0.97
2022-09-28T10:16:24.903Z,0.68
2022-09-28T10:21:29.514Z,1.12
2022-09-28T10:26:41.825Z,1.77
2022-09-28T10:31:50.322Z,1.00
2022-09-28T10:37:01.173Z,0.70
2022-09-28T10:42:08.617Z,0.45
2022-09-28T10:47:16.814Z,0.90
2022-09-28T10:52:45.109Z,1.05
2022-09-28T10:57:50.364Z,1.05
2022-09-28T11:08:02.623Z,0.73
2022-09-28T11:13:09.406Z,0.70
2022-09-28T11:18:41.722Z,0.75
2022-09-28T11:24:01.144Z,0.65
2022-09-28T11:29:04.758Z,0.62
2022-09-28T11:34:31.413Z,0.75
2022-09-28T11:40:15.598Z,0.73
2022-09-28T11:45:36.805Z,0.60
2022-09-28T11:50:57.866Z,1.37
2022-09-28T11:56:09.189Z,0.43
2022-09-28T12:01:22.207Z,0.60
2022-09-28T12:06:40.770Z,0.40
2022-09-28T12:11:48.660Z,0.60
2022-09-28T12:17:20.506Z,0.35
2022-09-28T12:22:36.248Z,0.77
2022-09-28T12:27:45.402Z,0.32
2022-09-28T12:32:56.070Z,0.70
2022-09-28T12:38:43.319Z,0.60
2022-09-28T12:43:55.050Z,0.45
2022-09-28T12:55:06.608Z,0.95
2022-09-28T13:00:15.990Z,0.98
2022-09-28T13:05:37.466Z,0.77
2022-09-28T13:11:15.650Z,1.08
2022-09-28T13:16:31.813Z,0.73
2022-09-28T13:22:04.955Z,0.75
2022-09-28T13:27:14.260Z,0.62
2022-09-28T13:32:17.339Z,0.93
2022-09-28T13:37:24.108Z,0.75
2022-09-28T13:42:41.670Z,0.75
2022-09-28T13:47:56.664Z,1.05
2022-09-28T13:53:19.602Z,1.12
2022-09-28T13:58:27.088Z,0.73
2022-09-28T14:04:01.440Z,0.93
2022-09-28T14:09:08.976Z,0.60
2022-09-28T14:14:11.774Z,0.88
2022-09-28T14:19:13.976Z,0.80
2022-09-28T14:24:37.222Z,0.60
2022-09-28T14:34:44.408Z,0.62
2022-09-28T14:40:26.245Z,0.80
2022-09-28T14:45:38.184Z,0.62
2022-09-28T14:50:40.607Z,0.60
2022-09-28T14:55:50.540Z,0.62
2022-09-28T15:00:59.861Z,0.73
2022-09-28T15:06:01.930Z,0.77
2022-09-28T15:11:04.442Z,0.82
2022-09-28T15:16:10.298Z,0.88
2022-09-28T15:21:13.506Z,1.05
2022-09-28T15:26:33.052Z,0.40
2022-09-28T15:31:36.011Z,0.80
2022-09-28T15:36:44.171Z,0.82
2022-09-28T15:41:47.841Z,0.75
2022-09-28T15:46:53.559Z,0.98
2022-09-28T15:51:55.996Z,0.88
2022-09-28T15:57:02.292Z,0.62
2022-09-28T16:02:18.402Z,0.82
2022-09-28T16:07:23.186Z,1.15
2022-09-28T16:12:37.185Z,0.70
2022-09-28T16:17:39.532Z,0.88
2022-09-28T16:22:43.443Z,0.88
2022-09-28T16:27:45.645Z,1.10
2022-09-28T16:32:52.691Z,0.82
2022-09-28T16:37:59.685Z,0.95
2022-09-28T16:43:05.679Z,0.90
2022-09-28T16:48:13.440Z,0.65
2022-09-28T16:53:35.965Z,1.00
2022-09-28T16:58:38.853Z,0.50
2022-09-28T17:08:48.604Z,0.85
2022-09-28T17:13:51.617Z,0.83
2022-09-28T17:18:53.653Z,1.40
2022-09-28T17:23:56.073Z,1.10
2022-09-28T17:28:59.362Z,0.93
2022-09-28T17:34:01.589Z,0.52
2022-09-28T17:39:05.055Z,0.50
2022-09-28T17:44:07.493Z,1.00
2022-09-28T17:49:11.967Z,1.05
2022-09-28T17:54:16.649Z,1.08
2022-09-28T17:59:19.189Z,1.33
2022-09-28T18:04:47.178Z,1.58
2022-09-28T18:09:43.328Z,1.83
2022-09-28T18:14:46.918Z,2.83
2022-09-28T18:19:48.998Z,3.28
2022-09-28T18:24:51.068Z,3.87
2022-09-28T18:29:53.075Z,2.97
2022-09-28T18:34:55.105Z,3.67
2022-09-28T18:39:57.228Z,3.10
2022-09-28T18:44:59.285Z,2.92
2022-09-28T18:50:01.397Z,3.10
2022-09-28T18:55:05.167Z,5.60
2022-09-28T19:00:11.148Z,5.95
2022-09-28T19:05:13.279Z,7.72
2022-09-28T19:10:15.372Z,13.50
2022-09-28T19:15:18.545Z,14.48
2022-09-28T19:20:20.932Z,13.23
2022-09-28T19:25:22.965Z,10.75
2022-09-28T19:30:24.974Z,6.40
2022-09-28T19:35:27.017Z,5.53
2022-09-28T19:40:29.130Z,4.33
2022-09-28T19:45:31.231Z,3.00
2022-09-28T19:50:33.339Z,2.23
2022-09-28T19:55:36.910Z,2.17
2022-09-28T20:00:38.992Z,1.93
2022-09-28T20:05:42.269Z,1.43
2022-09-28T20:10:52.400Z,1.40
2022-09-28T20:15:56.237Z,2.80
2022-09-28T20:21:03.555Z,3.53
2022-09-28T20:26:07.487Z,2.83
2022-09-28T20:31:16.118Z,3.37
2022-09-28T20:36:23.477Z,2.30
2022-09-28T20:41:25.604Z,1.80
2022-09-28T20:46:27.940Z,1.90
2022-09-28T20:51:30.166Z,2.65
2022-09-28T20:56:39.699Z,2.05
2022-09-28T21:01:41.874Z,1.40
2022-09-28T21:06:44.279Z,2.65
2022-09-28T21:11:47.855Z,1.83
2022-09-28T21:16:50.531Z,1.60
2022-09-28T21:21:52.620Z,2.35
2022-09-28T21:26:55.448Z,2.40
2022-09-28T21:36:59.393Z,1.83
2022-09-28T21:42:01.509Z,2.00
2022-09-28T21:47:03.594Z,1.33
2022-09-28T21:52:05.651Z,2.53
2022-09-28T21:57:08.803Z,3.07
2022-09-28T22:02:10.814Z,2.67
2022-09-28T22:07:12.828Z,2.20
2022-09-28T22:12:15.804Z,2.70
2022-09-28T22:17:17.822Z,2.13
2022-09-28T22:22:19.909Z,2.20
2022-09-28T22:27:21.927Z,2.83
2022-09-28T22:32:24.040Z,1.87
2022-09-28T22:37:27.985Z,2.13
2022-09-28T22:42:30.260Z,2.13
2022-09-28T22:47:32.261Z,2.05
2022-09-28T22:52:34.275Z,1.63
2022-09-28T22:57:36.342Z,2.60
2022-09-28T23:02:38.381Z,2.43
2022-09-28T23:07:40.427Z,1.70
2022-09-28T23:12:42.465Z,2.27
2022-09-28T23:17:44.503Z,1.70
2022-09-28T23:22:47.813Z,1.87
2022-09-28T23:27:50.661Z,1.75
2022-09-28T23:37:55.377Z,1.35
2022-09-28T23:42:57.388Z,1.67
2022-09-28T23:47:59.427Z,1.63
2022-09-28T23:53:01.601Z,1.40
2022-09-28T23:58:03.916Z,1.30
